Espace membre
Imprimable
Challenges > Delhalle - Dinant, 31/08/2014, BEL - La Descente de la Lesse
Liste des rapports > Delhalle - 21.9km - Classement
Recherche: Page: [1]
193 Entrées
 
Les réclamations ne sont plus acceptées, les résultats sont considérés comme définitifs.
RangNrNomAgeIOCLigueEquipeRéelTempsTkmMoy.ScrPtsLocalité
1.1102COLLIGNON FRÉDÉRIC44BELRFCL1:26:221:26:223:57 15.2281103
2.1374LAMBERT STEFAN48BEL1:26:591:26:593:59 15.11111094ANNEVOIE
3.1471MLECZKO OLIVIER43BEL1:28:481:28:484:04 14.80141073FLAWINNE
4.1502OUBOUSKOUR BRAHIM44BELCRAC1:31:091:31:094:10 14.42211043
5.1174DENIS PATRICK48BELARCH1:34:381:34:384:20 13.89261003
6.237DOS SANTOS NEIVA SERGIO41BELARCHJOGGPLUS1:36:101:36:104:24 13.6629985DINANT
7.1518PIERRE ETIENNE44BEL1:37:211:37:214:27 13.5034971YVOIR
8.524CHARLIER ALAIN44BELSMAC1:37:341:37:344:28 13.4737967BOUGE
9.1315HARDENNE ANDRÉ49BELFLEUFLEU1:37:551:37:554:29 13.4238963LA HESTRE
10.839POUCET BENOIT49BELJACO1:38:161:38:164:30 13.3740959SELOIGNES
11.699NOUAMANI MOHAMED43BELJOGGANS1:39:191:39:194:33 13.2344947BRUXELLES
12.1019BAUDOIN PHILIPPE44BELARCH1:39:371:39:374:33 13.1945943MIECRET
13.1509PAUWELS KRIS44BELVOLHVOLH1:40:341:40:344:36 13.0747932BEVEREN
14.863HACKENS YANNICK44BELERTK1:41:311:41:314:39 12.9553921EUPEN
15.228MARCHAL YVES44BELRUNNING WILD1:41:461:41:464:39 12.9154917VEDRIN
16.851BAIJOT PHILIPPE48BELJCCS1:41:541:41:544:40 12.9056915GEDINNE
17.1573ROMBOUTS ERIK41BEL1:42:311:42:314:41 12.8260908
18.1221DURAND WILFRID41FRA1:43:171:43:174:43 12.7262899GIVET
19.1352JOUAN BERNARD49BEL1:43:431:43:434:45 12.6764894THYNES
20.1413LIÉTART PATRICE42BEL1:43:491:43:494:45 12.6665893HOUYET
21.1015BAIJOT ERIC48BELARCH1:44:001:44:004:45 12.6366891DINANT
22.265BOONEN CHRIS43BELAVN1:45:581:45:584:51 12.4074869MEER
23.364DEWAIDE ANTONI41BEL1:47:171:47:174:54 12.2585851TINLOT
24.1555RICHARD ULRICH40BEL1:47:171:47:174:54 12.2586851
25.1258FRANCOIS ERIC42BEL1:47:191:47:194:54 12.2488850OVERIJSE
26.264SCAILLET VINCENT45BELHASTRAIL1:47:391:47:394:55 12.2191846HEER SUR MEUSE
27.78DUTRIEUX FERNAND43BEL1:48:221:48:224:57 12.1394837BAUDOUR
28.106LORGE JEAN-MARC48BEL1:48:331:48:334:58 12.1195836
29.721DARDENNE BERTRAND40BELFLEU1:48:341:48:344:58 12.1096835LIGNY
30.1592SCOUBEAU HENRI47BELRYTHMEACLUB1:48:511:48:514:59 12.0798831SOIGNIES
31.284MARTHOZ PASCAL45BELCEPAL1:48:591:48:594:59 12.06100829BRUXELLES
32.1545RENARD BRUNO45BEL1:49:141:49:145:00 12.03101827NALINNES
33.899LEHANCE PASCAL42BELRFCL1:49:211:49:215:00 12.02102825LIEGE
34.1536POUSSART MICHAEL40BEL1:49:301:49:305:00 12.00103823VIRELLES
35.1166DEMIN MICHEL46BEL1:49:441:49:445:01 11.98109819SOVET
35.1537POUSSEUR DOMINIQUE44BELARCH1:49:441:49:445:01 11.98109819LEIGNON
37.872JANSSENS ERIC43BELBDG RUNNERS1:49:481:49:485:01 11.97111817SCHAERBEEK
38.1412LICHTHERTE ERIC40BELBC LA HULLE1:50:061:50:065:02 11.94113814HULSONNIAUX
39.1391LEDOUX THIERRY45BELARCHARCH CINEY1:50:371:50:375:04 11.88117807HAVELANGE
40.477GRANDMONT JEAN-NOËL41BELARCHARCH CINEY1:50:591:50:595:05 11.84119803NASSOGNE
41.1585SARTORI SERGIO49ITAFLEU1:51:051:51:055:05 11.83120802SAMBREVILLE
42.1285GOCHARD MANUEL48BELSPEEDX1:51:071:51:075:05 11.83122801LANEFFE
43.1397LEJEUNE ETIENNE40BEL1:51:101:51:105:05 11.82123800TEMPLOUX
44.1596SERCKX THOMAS42BEL1:51:141:51:145:05 11.81124799CHAUMONT-GISTOUX
45.1654VAN EYCKE GERT46BELVOLHVOLH1:51:311:51:315:06 11.78128795BEVEREN
46.1424LOWIE FRANK49BELVOLH1:51:311:51:315:06 11.78129794BEVEREN
47.103VAN WYNENDAELE DIMITRY41BELJOGGANS1:51:361:51:365:06 11.78130793BRUXELLES
48.1217DUMOULIN SÉBASTIEN40BEL1:52:031:52:035:07 11.73133788FORGES
49.1214DULLIER OLIVIER42BEL1:52:081:52:085:08 11.72134787MAILLEN
50.1349JOLY JEAN-MARIE47BEL1:52:501:52:505:10 11.65142777SORÉE
51.1633VAN BEL PETER48BELBRTC1:53:121:53:125:11 11.61144773BRASSCHAAT
52.1199DISY CLAUDE45BEL1:53:511:53:515:12 11.54155763HUY
53.1648VAN DE SANDE BART40NLDKNAUS.V. FORTUNA '671:53:571:53:575:13 11.53158761SINT-OEDENRODE
54.1250FOGUENNE OLIVIER43BEL1:54:121:54:125:13 11.51159758STAVELOT
55.1490NENNEN ALAIN47BEL19671:54:181:54:185:14 11.501607565520
56.321ORVAL ALAIN45BEL1:54:241:54:245:14 11.49165754CINEY
57.1257FRANCHIMONT PIERRE43BEL1:54:381:54:385:15 11.46167751MARCHE-EN-FAMENNE
58.1689WOIT JEAN-CHRISTOPHE40BELVICO MARCHIN1:54:501:54:505:15 11.44169748HUY
59.128BAURIN HERVE49BEL1:55:171:55:175:16 11.40174742AGIMONT
60.1562ROBERT GAELIC40FRAJCPMF HERON1:55:181:55:185:16 11.40175742HERON
61.687LUX RALPH49BELGRACERTK1:55:571:55:575:18 11.33180734LA CALAMINE
62.1090CHILIADE FABRICE44BELGLAISE ET ROC CINEY1:56:411:56:415:20 11.26186725ACHET
63.1681WAGNER SÉBASTIEN42FRACMACHARLEVILLE MÉZIERES1:56:521:56:525:21 11.24188723
64.608ROSSI STEPHANE48BELSC BUTGENBACH1:57:161:57:165:22 11.21192717ROBERTVILLE
65.1239FAUCONNIER PASCAL47BELACBR1:57:411:57:415:23 11.17199711SCHOTEN
66.1435MARISSIAUX BERTRAND48BEL1:58:031:58:035:24 11.13202707ACHET
67.1284GOBBE PHILIPPE49BELFLEU1:58:091:58:095:24 11.12205704MELLET
68.1004ANCIAUX JEAN-PAUL45BEL1:58:411:58:415:26 11.07212697
69.1506PAQUAY DAVID40BEL1:58:421:58:425:26 11.07214696LAMINE
70.446RIJCKAERT FABIAN44BEL1:58:561:58:565:26 11.05218692ANDENNE
71.1299GRISARD PIERRE42BELDÉDÉ FOULÉES1:59:181:59:185:27 11.02221688ERPENT
72.612DEMORTIER LUC44BEL1:59:231:59:235:28 11.01222687SPY
73.425DE GRAVE OLIVIER49BELCSFMYSTERE1:59:591:59:595:29 10.95227680UCCLE
74.1164DEMARET OLIVIER41BELBAIL RUN2:00:012:00:015:29 10.95228679GODINNE
75.1388LECLERCQ DAMIEN43BELARCH2:00:052:00:055:29 10.94229678ASSESSE
76.1544RELEKOM STEPHANE47BELRCNAMUR2:00:292:00:295:31 10.91232674FRANIERE
77.1343JANSSENS STEVEN41BELBERLIN BOYZ2:00:442:00:445:31 10.88237670HOEILAART
78.998NAZÉ OLIVIER43BELRCNAMUR2:01:332:01:335:34 10.81245659VEDRIN
79.1065BUCHET SÉBASTIEN41BELFLEU2:01:482:01:485:34 10.79248656CHATELET
80.1521PIRAUX LUDOVIC41BEL2:02:032:02:035:35 10.77251653BOITSFORT
81.1032BISCOS DAVID41BELJAMES2:02:512:02:515:37 10.70254645ARCHENNES
82.1527POGNON GILLES49FRA2:03:112:03:115:38 10.67255642MOUZON
83.1664VAN THIENEN GERT-JAN42NLDKNAUS.V. FORTUNA '672:03:392:03:395:39 10.63259636SINT-OEDENRODE
84.1358KINET OLIVIER43BELRUNNING TEAM CONDROZ2:04:072:04:075:41 10.59263631MARCHIN
85.1148DEJACE ROBERT42BELCABW2:04:132:04:135:41 10.58265629
86.1045BONDAS BERNARD46BEL2:04:462:04:465:42 10.53268623BRUXELLES
87.1160DELTOMBE LUC44BEL2:04:542:04:545:43 10.52270622WOLUWE-SAINT-PIERRE
88.1481MOUZON JEAN-MARIE49BELARCH2:04:562:04:565:43 10.52271621MARCHE-EN-FAMENNE
89.1650VAN DE VYVERE POL47BEL2:04:572:04:575:43 10.52272621NOVILLE-LES-BOIS
90.1233EVRARD DIDIER49BELRUN PRO2:05:362:05:365:45 10.46279612BOIS DE VILLERS
91.1367LAFORÊT STÉPHANE40BEL2:05:362:05:365:45 10.46280612LESVE
92.1126DARON MICHAËL42BEL2:06:122:06:125:46 10.41287604MESNIL-ST-BLAISE
93.1606SPELLANZON MICHAEL43BELFRT2:06:172:06:175:46 10.41289603BINCHE
94.1597SESTITO GUISEPPE48ITAUACUAC2:06:202:06:205:47 10.40290602MARCINELLE
95.352BEYAERT MATTHIEU40BELRONVAU2:06:442:06:445:48 10.37294597BOUSVAL
96.1319HEBRANT ALEXANDRE40BEL2:06:542:06:545:48 10.36295595GREZ-DOICEAU
97.1176DEPOORTER FREDERIC40FRATRAIL DE LA LESSE2:06:592:06:595:48 10.35297594DAVERDISSE
98.1266GASMANNE DOMINIQUE47BEL2:07:412:07:415:50 10.29308584LANDELIES
99.1336ISTACE XAVIER49FRACMA2:07:452:07:455:50 10.29310582CHARLEVILLE -MÉZIÈRES
100.404TILBURGS FRANK47BELAVN2:08:112:08:115:52 10.25315577MEER
101.1055BRAHAM RENAUD40BEL2:08:122:08:125:52 10.25316576JEMELLE
102.1296GREGOIRE VINCENT45BELCRACJC MONTAGNARD2:08:142:08:145:52 10.25317576FORCHIES-LA-MARCHE
103.1089CHEVALIER MICHAEËL42BEL2:08:592:08:595:54 10.19332564NIMY
104.1348JOBE BERNARD40BELMDS20152:09:072:09:075:54 10.18334562LIEGE
105.1300GROLLINGER THIERRY49BELARCHARCH CINEY2:10:182:10:185:57 10.08350546BONSIN
106.1156DELLA FAILLE GILLES43BELENJAMBÉE2:10:282:10:285:58 10.07353543SCHAERBEEK
107.1378LAMBRECHTS JEAN-MARC40BELENJAMBEE2:10:282:10:285:58 10.07354543WEZEMBEEK OPPEM
108.1040BODART DENIS40BEL2:11:292:11:296:01 9.99368529GÉRIN
109.923CEULEMANS NICOLAS44BELANTILOB2:11:332:11:336:01 9.99369528INCOURT
110.1579ROSOUX LIONEL40BEL2:11:462:11:466:02 9.97370526NAMUR
111.1246FLAHAUX HUBERT41BEL2:11:542:11:546:02 9.96372525BOITSFORT
112.1560ROBBEETS JORIS44BEL2:12:132:12:136:03 9.94381519HAACHT
113.890CHARLES STEPHANE40BELJC HERINNES2:12:352:12:356:04 9.91388513HERINNES
114.1685WASLET HERVÉ44FRACMACHARLEVILLE MÉZIERES2:12:412:12:416:04 9.90389512
115.818BAUDUIN DIDIER47BELCABWNAC2:12:522:12:526:05 9.89391509UCCLE
116.1438MARRAZZA RODOLPHE40BELARCH2:13:122:13:126:05 9.87398504SART BERNARD
117.695DE DAPPER DAVID41BELCSFMYSTERE2:13:232:13:236:06 9.85400502BRUXELLES
118.771COPET FABIAN42BELWAL'COURSE RAIDLIGHT2:13:432:13:436:07 9.83407496THY-LE-CHATEAU
119.1684WARGÉ EDDY45BELOCAN2:14:432:14:436:10 9.75423482ANDENNE
120.1338JACQUEMIN BENOIT44BELBATSTH2:15:032:15:036:10 9.73427478ARVILLE
121.199ALAIME SEBASTIEN42BELSPTWSPTWAVRE2:15:492:15:496:13 9.68436469LIMAL
122.1039BODART CLAUDE45BEL2:15:502:15:506:13 9.67437468GRACE-HOLLOGNE
123.926GREVISSE DAVID40BEL2:16:392:16:396:15 9.62449457CHAUMONT GISTOUX
124.1203DOTREMONT STÉPHANE40BEL2:16:532:16:536:16 9.60452454WÉPION
125.1505PAPADATOS SPIRIDON44BEL2:16:532:16:536:16 9.604534545100
126.1637VANCOPPENOLLE THIERRY43BEL2:17:132:17:136:16 9.58461448RENAIX
127.1249FOBE JEAN-JACQUES48BELENJAMBÉE2:17:282:17:286:17 9.56464445KRAAINEM
128.1405LESOIL PHILIPPE47BELENJAMBEE2:17:542:17:546:18 9.53469440BRUXELLES
129.1629TIXHON AXEL42BEL2:18:422:18:426:20 9.47475431DINANT
130.1120DABE YVES47BEL2:18:482:18:486:21 9.47476430LIBRAMONT
131.1507PAQUET LUC45BEL2:19:032:19:036:21 9.45478428ROCHEFORT
132.1433MARCHAND ERIC40BEL2:19:092:19:096:22 9.44479426SPY
133.1114CRONET BERNARD41BEL2:19:312:19:316:23 9.42483422LOYERS
134.1104CONSEQUENCE BERTRAND48BELBERTO2:19:562:19:566:24 9.39485418MONS
135.1058BREHAIN DAVID40BEL2:20:042:20:046:24 9.38487416ECAUSSINNES
136.247LEONET MAXIME40BELRCBG2:20:052:20:056:24 9.38488416HAUT-FAYS
137.1425LUPCIN GERARD48BEL2:21:392:21:396:29 9.284984015580
138.1566ROBERT PASCAL48BEL2:21:402:21:406:29 9.28499400NASSOGNE
139.1235FALQUE JOHN41BELRCNAMUR2:21:412:21:416:29 9.27501399FLAWINNE
140.1491NEYMAN PASCAL46BEL2:23:032:23:036:32 9.19511385SAINT-GÉRARD
141.1135DECLERCQ PIERRE46BEL2:23:272:23:276:34 9.16512382SIVRY
142.1446MATERNE JULIEN41BEL2:24:402:24:406:37 9.08517372PERWEZ
143.1115CRONET ETIENNE46BELTROTRO2:24:402:24:406:37 9.08518371WIERDE
144.1328HOTAT MICHEL45BELJAMES2:24:522:24:526:37 9.07521368VILLERS-LA-VILLE
145.1464MEUWIS FRÉDÉRIC42BEL2:25:142:25:146:38 9.05525364GEMBLOUX
146.1157DELLOYE RUDI46BEL2:25:242:25:246:39 9.04527362MIÉCRET
147.1093CHRISTOPH CHARLES44BEL2:25:302:25:306:39 9.03529361OTTIGNIES
148.1128DAVE LAURENT41BELNOMADE2:26:212:26:216:41 8.98551346ACHET
149.1377LAMBIN SÉBASTIEN44BEL2:26:252:26:256:42 8.98555344DAVE
150.1335IOVINE DANIELE45BEL2:26:302:26:306:42 8.97561341JUMET
151.1146DEGRAUX FABRICE45BELJAMES2:26:402:26:406:42 8.96564338LOUVAIN LA NEUVE
152.1177DERAMAIX FABRICE49FRACMACHARLEVILLE MÉZIERES2:26:432:26:436:42 8.96566337
153.157ORANGE TOM42BEL2:27:172:27:176:44 8.92569332MONTENAKEN
154.56PIERRE STÉPHANE48BEL2:27:192:27:196:44 8.92570331RAMILLIES
155.1410LIBOIS OLIVIER45BELRCNAMUR2:27:322:27:326:45 8.91572329ANDENNE
156.1583SALMON WALTER44BEL2:28:002:28:006:46 8.88579323PESSOUX
157.1655VANKERM OLIVIER42BEL2:28:102:28:106:46 8.87581321RAMILLIES
158.1636VANCOMPERNOLLE KOEN49BELTORRACTORRAC2:28:492:28:496:48 8.83586314TORHOUT
159.383MAGOTTE OLIVIER42BELJAMES2:29:182:29:186:50 8.80590310NIVELLES
160.1088CHEVALIER JEAN LUC48BELPRLN JOGGING CLUB2:29:462:29:466:51 8.77596304SENEFFE
161.1252FORGET RÉGINALD48BEL2:30:032:30:036:52 8.76598301BELGRADE
162.1414LIFRANGE MARC-OLIVIER45BELENJAMBEE2:30:052:30:056:52 8.76599301BRUXELLES
163.1003ALFANO PINO45BEL2:30:492:30:496:54 8.71609292SOUMAGNE
164.1395LE GAL BENOIT45FRACEFOR NAMUR2:31:362:31:366:56 8.67617283FLOREFFE
165.1229ERNOULD ALAIN49BEL2:31:432:31:436:56 8.66618282ROMEDENNE
166.1662VAN ROOIJ PETER49NLDKNAUS.V. FORTUNA '672:31:472:31:476:56 8.66620280SINT-OEDENRODE
167.1139DECRETON CÉDRIC41BEL2:33:312:33:317:01 8.56631265BRUXELLES
168.1598SIDERIUS RUFUS45BEL2:33:332:33:337:01 8.566322645020
169.1357KEGELS LAURENT43BELHIS2:33:352:33:357:01 8.56633263BRUXELLES
170.1458MELOTTE JEAN MARC46BEL2:33:482:33:487:02 8.54635261WIERDE
171.1134DECLERC JEAN-FRANCOIS43BEL2:34:082:34:087:03 8.53640257WÉPION
172.746MEULEMEESTER PATRICK49BELFBFATJACO2:34:092:34:097:03 8.52642256MACQUENOISE
173.1061BRILOT FRANCY48BEL2:34:162:34:167:03 8.52645254BANDE
174.1431MALAISE DIDIER46BEL2:35:522:35:527:07 8.43654240HOUYET
175.1404LEQUENNE OLIVIER40BEL2:36:372:36:377:10 8.39661232WARISOULX
176.1561ROBERT CYRIL41FRASPORT HABITAT2:36:542:36:547:10 8.38664229
177.1344JAQUES HANS49BELTORRAC2:37:352:37:357:12 8.34672221TORHOUT
178.1037BOBY MICHEL47FRAEJCAJURA2:37:482:37:487:13 8.33674219
179.1430MAIRIAUX STEVE41BELJCM2:37:582:37:587:13 8.32679216CHARLEROI
180.1309HALLET PHILIPPE43BELL'AVENIR2:38:552:38:557:16 8.27684208WOMMERSOM
181.1581SABLON DOMINIQUE44BELCRAC2:39:032:39:037:16 8.26685206FORCHIES-LA-MARCHE
182.1301GROSSE PASCAL49BELROTARY HASTIERE2:39:212:39:217:17 8.25686204HASTIERE
183.52GENDARME PHILIPPE49BEL2:39:362:39:367:18 8.23691201VEDRIN
184.1329HOUBART CHARLES40BELRCNAMUR2:41:502:41:507:24 8.12707180JAMBES
185.1418LOMBARD CHRISTIAN46BELBC MANAGE2:42:292:42:297:26 8.09712174LA LOUVIERE
186.330GEUSKENS NICOLAS46BELRUN AG PSOR2:47:252:47:257:39 7.85743131WAVRE
187.1161DELVAUX PHILIPPE47BEL2:47:312:47:317:39 7.84744130SAINT-DENIS
188.1658VAN PEE JOHAN46BELMAC2:48:292:48:297:42 7.80751121HOEILAART
189.1190DHEUVAERT TOMMY47BEL2:49:572:49:577:46 7.73761108ZWALM
190.1142DEFOUR JEAN-FRANÇOIS48BELLEONARD RUNNING CLUB2:54:052:54:057:57 7.5578076BRUXELLES
191.1499OP DE BEECK SERGE48BEL2:54:592:54:598:00 7.5178270WERCHTER
192.1439MARSICK STÉPHANE40BEL2:55:212:55:218:01 7.4978367ROCROI
193.1339JACQUEMIN SERGE PHILIPPE44BEL2:59:462:59:468:13 7.3180035EREZEE
DNF: abandon; DSQ: disqualifié; Vitesse en km/h
Page: [1]